sensor_id;sensor_type;location;lat;lon;timestamp;temperature;humidity
20068;DHT22;10194;50.824;7.134;2022-12-18T00:01:34;-4.70;99.90
20068;DHT22;10194;50.824;7.134;2022-12-18T00:04:06;-4.70;99.90
20068;DHT22;10194;50.824;7.134;2022-12-18T00:06:52;-4.70;99.90
20068;DHT22;10194;50.824;7.134;2022-12-18T00:09:18;-4.70;99.90
20068;DHT22;10194;50.824;7.134;2022-12-18T00:11:44;-4.70;99.90
20068;DHT22;10194;50.824;7.134;2022-12-18T00:14:12;-4.70;99.90
20068;DHT22;10194;50.824;7.134;2022-12-18T00:16:39;-4.70;99.90
20068;DHT22;10194;50.824;7.134;2022-12-18T00:19:05;-4.70;99.90
20068;DHT22;10194;50.824;7.134;2022-12-18T00:21:33;-4.80;99.90
20068;DHT22;10194;50.824;7.134;2022-12-18T00:23:59;-4.80;99.90
20068;DHT22;10194;50.824;7.134;2022-12-18T00:26:30;-4.80;99.90
20068;DHT22;10194;50.824;7.134;2022-12-18T00:29:04;-4.80;99.90
20068;DHT22;10194;50.824;7.134;2022-12-18T00:31:36;-4.80;99.90
20068;DHT22;10194;50.824;7.134;2022-12-18T00:34:02;-4.90;99.90
20068;DHT22;10194;50.824;7.134;2022-12-18T00:36:31;-4.90;99.90
20068;DHT22;10194;50.824;7.134;2022-12-18T00:39:00;-4.90;99.90
20068;DHT22;10194;50.824;7.134;2022-12-18T00:41:28;-4.90;99.90
20068;DHT22;10194;50.824;7.134;2022-12-18T00:44:14;-4.80;99.90
20068;DHT22;10194;50.824;7.134;2022-12-18T00:46:43;-4.80;99.90
20068;DHT22;10194;50.824;7.134;2022-12-18T00:49:09;-4.80;99.90
20068;DHT22;10194;50.824;7.134;2022-12-18T00:51:35;-4.70;99.90
20068;DHT22;10194;50.824;7.134;2022-12-18T00:54:01;-4.70;99.90
20068;DHT22;10194;50.824;7.134;2022-12-18T00:56:27;-4.70;99.90
20068;DHT22;10194;50.824;7.134;2022-12-18T00:58:53;-4.70;99.90
20068;DHT22;10194;50.824;7.134;2022-12-18T01:01:19;-4.70;99.90
20068;DHT22;10194;50.824;7.134;2022-12-18T01:03:45;-4.70;99.90
20068;DHT22;10194;50.824;7.134;2022-12-18T01:06:13;-4.70;99.90
20068;DHT22;10194;50.824;7.134;2022-12-18T01:08:39;-4.80;99.90
20068;DHT22;10194;50.824;7.134;2022-12-18T01:11:14;-4.80;99.90
20068;DHT22;10194;50.824;7.134;2022-12-18T01:13:46;-4.80;99.90
20068;DHT22;10194;50.824;7.134;2022-12-18T01:16:13;-4.90;99.90
20068;DHT22;10194;50.824;7.134;2022-12-18T01:18:40;-4.90;99.90
20068;DHT22;10194;50.824;7.134;2022-12-18T01:21:11;-5.00;99.90
20068;DHT22;10194;50.824;7.134;2022-12-18T01:23:38;-5.00;99.90
20068;DHT22;10194;50.824;7.134;2022-12-18T01:26:09;-5.10;99.90
20068;DHT22;10194;50.824;7.134;2022-12-18T01:28:37;-5.10;99.90
20068;DHT22;10194;50.824;7.134;2022-12-18T01:31:24;-5.20;99.90
20068;DHT22;10194;50.824;7.134;2022-12-18T01:33:52;-5.20;99.90
20068;DHT22;10194;50.824;7.134;2022-12-18T01:36:24;-5.20;99.90
20068;DHT22;10194;50.824;7.134;2022-12-18T01:38:52;-5.20;99.90
20068;DHT22;10194;50.824;7.134;2022-12-18T01:41:22;-5.20;99.90
20068;DHT22;10194;50.824;7.134;2022-12-18T01:43:55;-5.20;99.90
20068;DHT22;10194;50.824;7.134;2022-12-18T01:46:26;-5.30;99.90
20068;DHT22;10194;50.824;7.134;2022-12-18T01:48:57;-5.30;99.90
20068;DHT22;10194;50.824;7.134;2022-12-18T01:51:27;-5.30;99.90
20068;DHT22;10194;50.824;7.134;2022-12-18T01:53:53;-5.40;99.90
20068;DHT22;10194;50.824;7.134;2022-12-18T01:56:20;-5.40;99.90
20068;DHT22;10194;50.824;7.134;2022-12-18T01:59:09;-5.40;99.90
20068;DHT22;10194;50.824;7.134;2022-12-18T02:01:36;-5.40;99.90
20068;DHT22;10194;50.824;7.134;2022-12-18T02:07:17;-5.40;99.90
20068;DHT22;10194;50.824;7.134;2022-12-18T02:10:00;-5.40;99.90
20068;DHT22;10194;50.824;7.134;2022-12-18T02:15:13;-5.50;99.90
20068;DHT22;10194;50.824;7.134;2022-12-18T02:17:52;-5.40;99.90
20068;DHT22;10194;50.824;7.134;2022-12-18T02:20:36;-5.50;99.90
20068;DHT22;10194;50.824;7.134;2022-12-18T02:29:13;-5.50;99.90
20068;DHT22;10194;50.824;7.134;2022-12-18T02:31:50;-5.50;99.90
20068;DHT22;10194;50.824;7.134;2022-12-18T02:34:18;-5.40;99.90
20068;DHT22;10194;50.824;7.134;2022-12-18T02:36:47;-5.40;99.90
20068;DHT22;10194;50.824;7.134;2022-12-18T02:39:15;-5.40;99.90
20068;DHT22;10194;50.824;7.134;2022-12-18T02:41:41;-5.30;99.90
20068;DHT22;10194;50.824;7.134;2022-12-18T02:44:10;-5.30;99.90
20068;DHT22;10194;50.824;7.134;2022-12-18T02:46:43;-5.30;99.90
20068;DHT22;10194;50.824;7.134;2022-12-18T03:00:36;-5.30;99.90
20068;DHT22;10194;50.824;7.134;2022-12-18T03:03:16;-5.20;99.90
20068;DHT22;10194;50.824;7.134;2022-12-18T03:05:53;-5.30;99.90
20068;DHT22;10194;50.824;7.134;2022-12-18T03:08:27;-5.30;99.90
20068;DHT22;10194;50.824;7.134;2022-12-18T03:11:06;-5.30;99.90
20068;DHT22;10194;50.824;7.134;2022-12-18T03:16:25;-5.30;99.90
20068;DHT22;10194;50.824;7.134;2022-12-18T03:19:07;-5.30;99.90
20068;DHT22;10194;50.824;7.134;2022-12-18T03:21:51;-5.30;99.90
20068;DHT22;10194;50.824;7.134;2022-12-18T03:24:20;-5.30;99.90
20068;DHT22;10194;50.824;7.134;2022-12-18T03:26:51;-5.30;99.90
20068;DHT22;10194;50.824;7.134;2022-12-18T03:29:23;-5.40;99.90
20068;DHT22;10194;50.824;7.134;2022-12-18T03:31:58;-5.40;99.90
20068;DHT22;10194;50.824;7.134;2022-12-18T03:34:33;-5.40;99.90
20068;DHT22;10194;50.824;7.134;2022-12-18T03:37:01;-5.40;99.90
20068;DHT22;10194;50.824;7.134;2022-12-18T03:39:28;-5.40;99.90
20068;DHT22;10194;50.824;7.134;2022-12-18T03:42:06;-5.40;99.90
20068;DHT22;10194;50.824;7.134;2022-12-18T03:44:44;-5.40;99.90
20068;DHT22;10194;50.824;7.134;2022-12-18T03:50:05;-5.50;99.90
20068;DHT22;10194;50.824;7.134;2022-12-18T03:52:46;-5.50;99.90
20068;DHT22;10194;50.824;7.134;2022-12-18T03:55:17;-5.50;99.90
20068;DHT22;10194;50.824;7.134;2022-12-18T03:57:44;-5.50;99.90
20068;DHT22;10194;50.824;7.134;2022-12-18T04:00:13;-5.40;99.90
20068;DHT22;10194;50.824;7.134;2022-12-18T04:02:44;-5.50;99.90
20068;DHT22;10194;50.824;7.134;2022-12-18T04:05:15;-5.50;99.90
20068;DHT22;10194;50.824;7.134;2022-12-18T04:07:43;-5.40;99.90
20068;DHT22;10194;50.824;7.134;2022-12-18T04:10:12;-5.50;99.90
20068;DHT22;10194;50.824;7.134;2022-12-18T04:12:38;-5.40;99.90
20068;DHT22;10194;50.824;7.134;2022-12-18T04:15:05;-5.40;99.90
20068;DHT22;10194;50.824;7.134;2022-12-18T04:17:31;-5.40;99.90
20068;DHT22;10194;50.824;7.134;2022-12-18T04:19:57;-5.40;99.90
20068;DHT22;10194;50.824;7.134;2022-12-18T04:22:22;-5.50;99.90
20068;DHT22;10194;50.824;7.134;2022-12-18T04:24:48;-5.40;99.90
20068;DHT22;10194;50.824;7.134;2022-12-18T04:27:14;-5.40;99.90
20068;DHT22;10194;50.824;7.134;2022-12-18T04:29:40;-5.50;99.90
20068;DHT22;10194;50.824;7.134;2022-12-18T04:32:06;-5.50;99.90
20068;DHT22;10194;50.824;7.134;2022-12-18T04:34:32;-5.60;99.90
20068;DHT22;10194;50.824;7.134;2022-12-18T04:36:58;-5.50;99.90
20068;DHT22;10194;50.824;7.134;2022-12-18T04:39:24;-5.50;99.90
20068;DHT22;10194;50.824;7.134;2022-12-18T04:41:49;-5.50;99.90
20068;DHT22;10194;50.824;7.134;2022-12-18T04:44:15;-5.60;99.90
20068;DHT22;10194;50.824;7.134;2022-12-18T04:46:41;-5.60;99.90
20068;DHT22;10194;50.824;7.134;2022-12-18T04:49:07;-5.60;99.90
20068;DHT22;10194;50.824;7.134;2022-12-18T04:51:32;-5.50;99.90
20068;DHT22;10194;50.824;7.134;2022-12-18T04:53:58;-5.50;99.90
20068;DHT22;10194;50.824;7.134;2022-12-18T04:56:24;-5.50;99.90
20068;DHT22;10194;50.824;7.134;2022-12-18T04:58:50;-5.50;99.90
20068;DHT22;10194;50.824;7.134;2022-12-18T05:01:17;-5.50;99.90
20068;DHT22;10194;50.824;7.134;2022-12-18T05:03:43;-5.50;99.90
20068;DHT22;10194;50.824;7.134;2022-12-18T05:06:10;-5.50;99.90
20068;DHT22;10194;50.824;7.134;2022-12-18T05:08:36;-5.50;99.90
20068;DHT22;10194;50.824;7.134;2022-12-18T05:11:11;-5.50;99.90
20068;DHT22;10194;50.824;7.134;2022-12-18T05:13:41;-5.50;99.90
20068;DHT22;10194;50.824;7.134;2022-12-18T05:16:08;-5.50;99.90
20068;DHT22;10194;50.824;7.134;2022-12-18T05:18:35;-5.50;99.90
20068;DHT22;10194;50.824;7.134;2022-12-18T05:21:01;-5.40;99.90
20068;DHT22;10194;50.824;7.134;2022-12-18T05:23:27;-5.40;99.90
20068;DHT22;10194;50.824;7.134;2022-12-18T05:25:55;-5.40;99.90
20068;DHT22;10194;50.824;7.134;2022-12-18T05:28:24;-5.40;99.90
20068;DHT22;10194;50.824;7.134;2022-12-18T05:30:52;-5.40;99.90
20068;DHT22;10194;50.824;7.134;2022-12-18T05:33:20;-5.40;99.90
20068;DHT22;10194;50.824;7.134;2022-12-18T05:35:55;-5.40;99.90
20068;DHT22;10194;50.824;7.134;2022-12-18T05:38:23;-5.40;99.90
20068;DHT22;10194;50.824;7.134;2022-12-18T05:40:51;-5.50;99.90
20068;DHT22;10194;50.824;7.134;2022-12-18T05:43:22;-5.50;99.90
20068;DHT22;10194;50.824;7.134;2022-12-18T05:45:49;-5.40;99.90
20068;DHT22;10194;50.824;7.134;2022-12-18T05:48:16;-5.40;99.90
20068;DHT22;10194;50.824;7.134;2022-12-18T05:50:44;-5.40;99.90
20068;DHT22;10194;50.824;7.134;2022-12-18T05:53:17;-5.40;99.90
20068;DHT22;10194;50.824;7.134;2022-12-18T05:55:45;-5.40;99.90
20068;DHT22;10194;50.824;7.134;2022-12-18T05:58:12;-5.30;99.90
20068;DHT22;10194;50.824;7.134;2022-12-18T06:00:42;-5.30;99.90
20068;DHT22;10194;50.824;7.134;2022-12-18T06:03:10;-5.30;99.90
20068;DHT22;10194;50.824;7.134;2022-12-18T06:05:38;-5.30;99.90
20068;DHT22;10194;50.824;7.134;2022-12-18T06:08:05;-5.30;99.90
20068;DHT22;10194;50.824;7.134;2022-12-18T06:10:31;-5.20;99.90
20068;DHT22;10194;50.824;7.134;2022-12-18T06:12:57;-5.10;99.90
20068;DHT22;10194;50.824;7.134;2022-12-18T06:15:23;-5.10;99.90
20068;DHT22;10194;50.824;7.134;2022-12-18T06:17:49;-5.10;99.90
20068;DHT22;10194;50.824;7.134;2022-12-18T06:20:16;-5.10;99.90
20068;DHT22;10194;50.824;7.134;2022-12-18T06:22:42;-5.00;99.90
20068;DHT22;10194;50.824;7.134;2022-12-18T06:25:08;-5.00;99.90
20068;DHT22;10194;50.824;7.134;2022-12-18T06:27:34;-5.10;99.90
20068;DHT22;10194;50.824;7.134;2022-12-18T06:30:00;-5.10;99.90
20068;DHT22;10194;50.824;7.134;2022-12-18T06:32:26;-5.00;99.90
20068;DHT22;10194;50.824;7.134;2022-12-18T06:34:52;-5.10;99.90
20068;DHT22;10194;50.824;7.134;2022-12-18T06:37:19;-5.10;99.90
20068;DHT22;10194;50.824;7.134;2022-12-18T06:39:45;-5.10;99.90
20068;DHT22;10194;50.824;7.134;2022-12-18T06:42:11;-5.10;99.90
20068;DHT22;10194;50.824;7.134;2022-12-18T06:44:37;-5.10;99.90
20068;DHT22;10194;50.824;7.134;2022-12-18T06:47:02;-5.00;99.90
20068;DHT22;10194;50.824;7.134;2022-12-18T06:49:28;-5.00;99.90
20068;DHT22;10194;50.824;7.134;2022-12-18T06:51:54;-5.00;99.90
20068;DHT22;10194;50.824;7.134;2022-12-18T06:54:19;-5.10;99.90
20068;DHT22;10194;50.824;7.134;2022-12-18T06:56:46;-5.10;99.90
20068;DHT22;10194;50.824;7.134;2022-12-18T06:59:13;-5.10;99.90
20068;DHT22;10194;50.824;7.134;2022-12-18T07:01:40;-4.90;99.90
20068;DHT22;10194;50.824;7.134;2022-12-18T07:04:05;-5.00;99.90
20068;DHT22;10194;50.824;7.134;2022-12-18T07:06:31;-5.00;99.90
20068;DHT22;10194;50.824;7.134;2022-12-18T07:08:57;-5.00;99.90
20068;DHT22;10194;50.824;7.134;2022-12-18T07:11:23;-5.00;99.90
20068;DHT22;10194;50.824;7.134;2022-12-18T07:13:48;-4.90;99.90
20068;DHT22;10194;50.824;7.134;2022-12-18T07:16:17;-5.00;99.90
20068;DHT22;10194;50.824;7.134;2022-12-18T07:18:43;-5.10;99.90
20068;DHT22;10194;50.824;7.134;2022-12-18T07:21:12;-5.00;99.90
20068;DHT22;10194;50.824;7.134;2022-12-18T07:23:39;-5.10;99.90
20068;DHT22;10194;50.824;7.134;2022-12-18T07:26:13;-5.00;99.90
20068;DHT22;10194;50.824;7.134;2022-12-18T07:28:41;-4.90;99.90
20068;DHT22;10194;50.824;7.134;2022-12-18T07:31:12;-4.90;99.90
20068;DHT22;10194;50.824;7.134;2022-12-18T07:33:40;-5.00;99.90
20068;DHT22;10194;50.824;7.134;2022-12-18T07:36:07;-5.00;99.90
20068;DHT22;10194;50.824;7.134;2022-12-18T07:38:34;-5.00;99.90
20068;DHT22;10194;50.824;7.134;2022-12-18T07:41:10;-5.00;99.90
20068;DHT22;10194;50.824;7.134;2022-12-18T07:43:38;-5.00;99.90
20068;DHT22;10194;50.824;7.134;2022-12-18T07:46:04;-5.00;99.90
20068;DHT22;10194;50.824;7.134;2022-12-18T07:48:30;-5.00;99.90
20068;DHT22;10194;50.824;7.134;2022-12-18T07:51:04;-5.00;99.90
20068;DHT22;10194;50.824;7.134;2022-12-18T07:53:31;-5.00;99.90
20068;DHT22;10194;50.824;7.134;2022-12-18T07:55:59;-5.00;99.90
20068;DHT22;10194;50.824;7.134;2022-12-18T07:58:26;-4.90;99.90
20068;DHT22;10194;50.824;7.134;2022-12-18T08:00:52;-4.90;99.90
20068;DHT22;10194;50.824;7.134;2022-12-18T08:03:18;-4.90;99.90
20068;DHT22;10194;50.824;7.134;2022-12-18T08:05:44;-4.80;99.90
20068;DHT22;10194;50.824;7.134;2022-12-18T08:08:10;-4.80;99.90
20068;DHT22;10194;50.824;7.134;2022-12-18T08:10:37;-4.80;99.90
20068;DHT22;10194;50.824;7.134;2022-12-18T08:13:03;-4.70;99.90
20068;DHT22;10194;50.824;7.134;2022-12-18T08:15:29;-4.80;99.90
20068;DHT22;10194;50.824;7.134;2022-12-18T08:17:58;-4.70;99.90
20068;DHT22;10194;50.824;7.134;2022-12-18T08:20:23;-4.70;99.90
20068;DHT22;10194;50.824;7.134;2022-12-18T08:22:49;-4.70;99.90
20068;DHT22;10194;50.824;7.134;2022-12-18T08:25:15;-4.60;99.90
20068;DHT22;10194;50.824;7.134;2022-12-18T08:27:41;-4.50;99.90
20068;DHT22;10194;50.824;7.134;2022-12-18T08:30:07;-4.40;99.90
20068;DHT22;10194;50.824;7.134;2022-12-18T08:32:33;-4.40;99.90
20068;DHT22;10194;50.824;7.134;2022-12-18T08:34:59;-4.20;99.90
20068;DHT22;10194;50.824;7.134;2022-12-18T08:37:25;-4.20;99.90
20068;DHT22;10194;50.824;7.134;2022-12-18T08:39:51;-4.20;99.90
20068;DHT22;10194;50.824;7.134;2022-12-18T08:42:17;-4.10;99.90
20068;DHT22;10194;50.824;7.134;2022-12-18T08:45:11;-4.00;99.90
20068;DHT22;10194;50.824;7.134;2022-12-18T08:47:37;-4.10;99.90
20068;DHT22;10194;50.824;7.134;2022-12-18T08:50:03;-4.00;99.90
20068;DHT22;10194;50.824;7.134;2022-12-18T08:52:31;-3.90;99.90
20068;DHT22;10194;50.824;7.134;2022-12-18T08:54:57;-3.90;99.90
20068;DHT22;10194;50.824;7.134;2022-12-18T08:57:23;-3.80;99.90
20068;DHT22;10194;50.824;7.134;2022-12-18T08:59:49;-3.80;99.90
20068;DHT22;10194;50.824;7.134;2022-12-18T09:02:15;-3.70;99.90
20068;DHT22;10194;50.824;7.134;2022-12-18T09:04:40;-3.70;99.90
20068;DHT22;10194;50.824;7.134;2022-12-18T09:07:06;-3.70;99.90
20068;DHT22;10194;50.824;7.134;2022-12-18T09:09:32;-3.60;99.90
20068;DHT22;10194;50.824;7.134;2022-12-18T09:11:58;-3.50;99.90
20068;DHT22;10194;50.824;7.134;2022-12-18T09:14:24;-3.40;99.90
20068;DHT22;10194;50.824;7.134;2022-12-18T09:16:49;-3.40;99.90
20068;DHT22;10194;50.824;7.134;2022-12-18T09:19:15;-3.30;99.90
20068;DHT22;10194;50.824;7.134;2022-12-18T09:21:41;-3.20;99.90
20068;DHT22;10194;50.824;7.134;2022-12-18T09:24:14;-3.10;99.90
20068;DHT22;10194;50.824;7.134;2022-12-18T09:26:40;-3.10;99.90
20068;DHT22;10194;50.824;7.134;2022-12-18T09:29:06;-3.10;99.90
20068;DHT22;10194;50.824;7.134;2022-12-18T09:31:36;-3.00;99.90
20068;DHT22;10194;50.824;7.134;2022-12-18T09:34:05;-3.00;99.90
20068;DHT22;10194;50.824;7.134;2022-12-18T09:36:31;-2.90;99.90
20068;DHT22;10194;50.824;7.134;2022-12-18T09:38:57;-2.90;99.90
20068;DHT22;10194;50.824;7.134;2022-12-18T09:41:43;-2.80;99.90
20068;DHT22;10194;50.824;7.134;2022-12-18T09:44:20;-2.60;99.90
20068;DHT22;10194;50.824;7.134;2022-12-18T09:47:18;-2.50;99.90
20068;DHT22;10194;50.824;7.134;2022-12-18T09:50:03;-2.40;99.90
20068;DHT22;10194;50.824;7.134;2022-12-18T09:52:35;-2.40;99.90
20068;DHT22;10194;50.824;7.134;2022-12-18T09:58:07;-2.20;99.90
20068;DHT22;10194;50.824;7.134;2022-12-18T10:00:43;-2.10;99.90
20068;DHT22;10194;50.824;7.134;2022-12-18T10:03:12;-2.00;99.90
20068;DHT22;10194;50.824;7.134;2022-12-18T10:14:56;-1.70;99.90
20068;DHT22;10194;50.824;7.134;2022-12-18T10:20:13;-1.60;99.90
20068;DHT22;10194;50.824;7.134;2022-12-18T10:25:40;-1.40;99.90
20068;DHT22;10194;50.824;7.134;2022-12-18T10:28:21;-1.30;99.90
20068;DHT22;10194;50.824;7.134;2022-12-18T10:30:48;-1.30;99.90
20068;DHT22;10194;50.824;7.134;2022-12-18T10:33:20;-1.30;99.90
20068;DHT22;10194;50.824;7.134;2022-12-18T10:35:52;-1.30;99.90
20068;DHT22;10194;50.824;7.134;2022-12-18T10:41:00;-1.20;99.90
20068;DHT22;10194;50.824;7.134;2022-12-18T10:43:30;-1.20;99.90
20068;DHT22;10194;50.824;7.134;2022-12-18T10:54:03;-1.10;99.90
20068;DHT22;10194;50.824;7.134;2022-12-18T10:56:38;-1.10;99.90
20068;DHT22;10194;50.824;7.134;2022-12-18T10:59:07;-1.00;99.90
20068;DHT22;10194;50.824;7.134;2022-12-18T11:01:53;-0.90;99.90
20068;DHT22;10194;50.824;7.134;2022-12-18T11:04:25;-0.90;99.90
20068;DHT22;10194;50.824;7.134;2022-12-18T11:06:58;-0.80;99.90
20068;DHT22;10194;50.824;7.134;2022-12-18T11:09:27;-0.80;99.90
20068;DHT22;10194;50.824;7.134;2022-12-18T11:11:59;-0.80;99.90
20068;DHT22;10194;50.824;7.134;2022-12-18T11:14:42;-0.70;99.90
20068;DHT22;10194;50.824;7.134;2022-12-18T11:17:23;-0.60;99.90
20068;DHT22;10194;50.824;7.134;2022-12-18T11:19:56;-0.80;99.90
20068;DHT22;10194;50.824;7.134;2022-12-18T11:22:34;-0.70;99.90
20068;DHT22;10194;50.824;7.134;2022-12-18T11:25:16;-0.70;99.90
20068;DHT22;10194;50.824;7.134;2022-12-18T11:28:01;-0.80;99.90
20068;DHT22;10194;50.824;7.134;2022-12-18T11:30:35;-0.80;99.90
20068;DHT22;10194;50.824;7.134;2022-12-18T11:35:52;-0.70;99.90
20068;DHT22;10194;50.824;7.134;2022-12-18T11:44:00;-0.80;99.90
20068;DHT22;10194;50.824;7.134;2022-12-18T11:46:43;-0.90;99.90
20068;DHT22;10194;50.824;7.134;2022-12-18T11:49:34;-0.80;99.90
20068;DHT22;10194;50.824;7.134;2022-12-18T11:52:18;-0.80;99.90
20068;DHT22;10194;50.824;7.134;2022-12-18T11:54:46;-0.90;99.90
20068;DHT22;10194;50.824;7.134;2022-12-18T11:57:34;-0.90;99.90
20068;DHT22;10194;50.824;7.134;2022-12-18T12:00:13;-0.80;99.90
20068;DHT22;10194;50.824;7.134;2022-12-18T12:09:10;-0.90;99.90
20068;DHT22;10194;50.824;7.134;2022-12-18T12:21:21;-0.80;99.90
20068;DHT22;10194;50.824;7.134;2022-12-18T12:30:00;-0.90;99.90
20068;DHT22;10194;50.824;7.134;2022-12-18T12:38:35;-0.90;99.90
20068;DHT22;10194;50.824;7.134;2022-12-18T12:41:09;-0.90;99.90
20068;DHT22;10194;50.824;7.134;2022-12-18T12:44:01;-0.90;99.90
20068;DHT22;10194;50.824;7.134;2022-12-18T12:46:32;-0.90;99.90
20068;DHT22;10194;50.824;7.134;2022-12-18T12:49:02;-0.80;99.90
20068;DHT22;10194;50.824;7.134;2022-12-18T12:51:39;-0.90;99.90
20068;DHT22;10194;50.824;7.134;2022-12-18T12:54:15;-0.90;99.90
20068;DHT22;10194;50.824;7.134;2022-12-18T12:57:09;-0.90;99.90
20068;DHT22;10194;50.824;7.134;2022-12-18T12:59:57;-0.90;99.90
20068;DHT22;10194;50.824;7.134;2022-12-18T13:10:52;-0.80;99.90
20068;DHT22;10194;50.824;7.134;2022-12-18T13:13:55;-0.80;99.90
20068;DHT22;10194;50.824;7.134;2022-12-18T13:16:25;-0.70;99.90
20068;DHT22;10194;50.824;7.134;2022-12-18T13:18:57;-0.70;99.90
20068;DHT22;10194;50.824;7.134;2022-12-18T13:21:29;-0.70;99.90
20068;DHT22;10194;50.824;7.134;2022-12-18T13:23:57;-0.70;99.90
20068;DHT22;10194;50.824;7.134;2022-12-18T13:26:40;-0.60;99.90
20068;DHT22;10194;50.824;7.134;2022-12-18T13:29:06;-0.60;99.90
20068;DHT22;10194;50.824;7.134;2022-12-18T13:34:27;-0.60;99.90
20068;DHT22;10194;50.824;7.134;2022-12-18T13:39:58;-0.60;99.90
20068;DHT22;10194;50.824;7.134;2022-12-18T13:45:38;-0.50;99.90
20068;DHT22;10194;50.824;7.134;2022-12-18T13:48:22;-0.60;99.90
20068;DHT22;10194;50.824;7.134;2022-12-18T13:51:07;-0.60;99.90
20068;DHT22;10194;50.824;7.134;2022-12-18T13:53:43;-0.70;99.90
20068;DHT22;10194;50.824;7.134;2022-12-18T13:56:25;-0.70;99.90
20068;DHT22;10194;50.824;7.134;2022-12-18T13:59:16;-0.70;99.90
20068;DHT22;10194;50.824;7.134;2022-12-18T14:01:51;-0.70;99.90
20068;DHT22;10194;50.824;7.134;2022-12-18T14:04:27;-0.70;99.90
20068;DHT22;10194;50.824;7.134;2022-12-18T14:09:57;-0.70;99.90
20068;DHT22;10194;50.824;7.134;2022-12-18T14:12:32;-0.70;99.90
20068;DHT22;10194;50.824;7.134;2022-12-18T14:17:57;-0.90;99.90
20068;DHT22;10194;50.824;7.134;2022-12-18T14:20:26;-1.00;99.90
20068;DHT22;10194;50.824;7.134;2022-12-18T14:22:52;-1.00;99.90
20068;DHT22;10194;50.824;7.134;2022-12-18T14:30:40;-1.10;99.90
20068;DHT22;10194;50.824;7.134;2022-12-18T14:33:13;-1.20;99.90
20068;DHT22;10194;50.824;7.134;2022-12-18T14:35:59;-1.10;99.90
20068;DHT22;10194;50.824;7.134;2022-12-18T14:41:15;-1.20;99.90
20068;DHT22;10194;50.824;7.134;2022-12-18T14:43:44;-1.30;99.90
20068;DHT22;10194;50.824;7.134;2022-12-18T14:49:05;-1.30;99.90
20068;DHT22;10194;50.824;7.134;2022-12-18T14:51:56;-1.30;99.90
20068;DHT22;10194;50.824;7.134;2022-12-18T14:54:27;-1.30;99.90
20068;DHT22;10194;50.824;7.134;2022-12-18T14:56:59;-1.30;99.90
20068;DHT22;10194;50.824;7.134;2022-12-18T14:59:27;-1.30;99.90
20068;DHT22;10194;50.824;7.134;2022-12-18T15:04:43;-1.40;99.90
20068;DHT22;10194;50.824;7.134;2022-12-18T15:07:19;-1.50;99.90
20068;DHT22;10194;50.824;7.134;2022-12-18T15:12:36;-1.40;99.90
20068;DHT22;10194;50.824;7.134;2022-12-18T15:18:15;-1.40;99.90
20068;DHT22;10194;50.824;7.134;2022-12-18T15:21:09;-1.40;99.90
20068;DHT22;10194;50.824;7.134;2022-12-18T15:23:49;-1.50;99.90
20068;DHT22;10194;50.824;7.134;2022-12-18T15:26:18;-1.50;99.90
20068;DHT22;10194;50.824;7.134;2022-12-18T15:28:48;-1.50;99.90
20068;DHT22;10194;50.824;7.134;2022-12-18T15:31:33;-1.50;99.90
20068;DHT22;10194;50.824;7.134;2022-12-18T15:34:12;-1.60;99.90
20068;DHT22;10194;50.824;7.134;2022-12-18T15:36:40;-1.50;99.90
20068;DHT22;10194;50.824;7.134;2022-12-18T15:39:06;-1.60;99.90
20068;DHT22;10194;50.824;7.134;2022-12-18T15:41:33;-1.60;99.90
20068;DHT22;10194;50.824;7.134;2022-12-18T15:44:00;-1.60;99.90
20068;DHT22;10194;50.824;7.134;2022-12-18T15:46:26;-1.60;99.90
20068;DHT22;10194;50.824;7.134;2022-12-18T15:48:56;-1.50;99.90
20068;DHT22;10194;50.824;7.134;2022-12-18T15:51:26;-1.50;99.90
20068;DHT22;10194;50.824;7.134;2022-12-18T15:54:04;-1.60;99.90
20068;DHT22;10194;50.824;7.134;2022-12-18T15:56:31;-1.60;99.90
20068;DHT22;10194;50.824;7.134;2022-12-18T15:59:18;-1.60;99.90
20068;DHT22;10194;50.824;7.134;2022-12-18T16:01:46;-1.50;99.90
20068;DHT22;10194;50.824;7.134;2022-12-18T16:04:16;-1.60;99.90
20068;DHT22;10194;50.824;7.134;2022-12-18T16:06:43;-1.40;99.90
20068;DHT22;10194;50.824;7.134;2022-12-18T16:09:09;-1.50;99.90
20068;DHT22;10194;50.824;7.134;2022-12-18T16:11:36;-1.50;99.90
20068;DHT22;10194;50.824;7.134;2022-12-18T16:14:19;-1.50;99.90
20068;DHT22;10194;50.824;7.134;2022-12-18T16:16:51;-1.60;99.90
20068;DHT22;10194;50.824;7.134;2022-12-18T16:19:19;-1.50;99.90
20068;DHT22;10194;50.824;7.134;2022-12-18T16:21:46;-1.60;99.90
20068;DHT22;10194;50.824;7.134;2022-12-18T16:24:15;-1.50;99.90
20068;DHT22;10194;50.824;7.134;2022-12-18T16:26:43;-1.60;99.90
20068;DHT22;10194;50.824;7.134;2022-12-18T16:29:09;-1.60;99.90
20068;DHT22;10194;50.824;7.134;2022-12-18T16:31:36;-1.60;99.90
20068;DHT22;10194;50.824;7.134;2022-12-18T16:36:54;-1.60;99.90
20068;DHT22;10194;50.824;7.134;2022-12-18T16:39:21;-1.50;99.90
20068;DHT22;10194;50.824;7.134;2022-12-18T16:41:47;-1.50;99.90
20068;DHT22;10194;50.824;7.134;2022-12-18T16:44:13;-1.50;99.90
20068;DHT22;10194;50.824;7.134;2022-12-18T16:46:40;-1.50;99.90
20068;DHT22;10194;50.824;7.134;2022-12-18T16:49:08;-1.40;99.90
20068;DHT22;10194;50.824;7.134;2022-12-18T16:51:35;-1.50;99.90
20068;DHT22;10194;50.824;7.134;2022-12-18T16:54:01;-1.50;99.90
20068;DHT22;10194;50.824;7.134;2022-12-18T16:56:27;-1.50;99.90
20068;DHT22;10194;50.824;7.134;2022-12-18T16:58:55;-1.50;99.90
20068;DHT22;10194;50.824;7.134;2022-12-18T17:01:23;-1.50;99.90
20068;DHT22;10194;50.824;7.134;2022-12-18T17:03:59;-1.50;99.90
20068;DHT22;10194;50.824;7.134;2022-12-18T17:06:29;-1.50;99.90
20068;DHT22;10194;50.824;7.134;2022-12-18T17:08:57;-1.50;99.90
20068;DHT22;10194;50.824;7.134;2022-12-18T17:11:25;-1.40;99.90
20068;DHT22;10194;50.824;7.134;2022-12-18T17:13:54;-1.40;99.90
20068;DHT22;10194;50.824;7.134;2022-12-18T17:16:20;-1.40;99.90
20068;DHT22;10194;50.824;7.134;2022-12-18T17:18:46;-1.40;99.90
20068;DHT22;10194;50.824;7.134;2022-12-18T17:21:12;-1.40;99.90
20068;DHT22;10194;50.824;7.134;2022-12-18T17:23:41;-1.40;99.90
20068;DHT22;10194;50.824;7.134;2022-12-18T17:26:11;-1.40;99.90
20068;DHT22;10194;50.824;7.134;2022-12-18T17:28:39;-1.40;99.90
20068;DHT22;10194;50.824;7.134;2022-12-18T17:31:18;-1.50;99.90
20068;DHT22;10194;50.824;7.134;2022-12-18T17:33:45;-1.50;99.90
20068;DHT22;10194;50.824;7.134;2022-12-18T17:36:11;-1.50;99.90
20068;DHT22;10194;50.824;7.134;2022-12-18T17:38:37;-1.50;99.90
20068;DHT22;10194;50.824;7.134;2022-12-18T17:41:05;-1.50;99.90
20068;DHT22;10194;50.824;7.134;2022-12-18T17:43:33;-1.50;99.90
20068;DHT22;10194;50.824;7.134;2022-12-18T17:46:12;-1.50;99.90
20068;DHT22;10194;50.824;7.134;2022-12-18T17:48:39;-1.50;99.90
20068;DHT22;10194;50.824;7.134;2022-12-18T17:51:07;-1.50;99.90
20068;DHT22;10194;50.824;7.134;2022-12-18T17:53:34;-1.50;99.90
20068;DHT22;10194;50.824;7.134;2022-12-18T17:56:00;-1.50;99.90
20068;DHT22;10194;50.824;7.134;2022-12-18T17:58:27;-1.60;99.90
20068;DHT22;10194;50.824;7.134;2022-12-18T18:00:53;-1.50;99.90
20068;DHT22;10194;50.824;7.134;2022-12-18T18:03:19;-1.50;99.90
20068;DHT22;10194;50.824;7.134;2022-12-18T18:05:45;-1.60;99.90
20068;DHT22;10194;50.824;7.134;2022-12-18T18:08:11;-1.60;99.90
20068;DHT22;10194;50.824;7.134;2022-12-18T18:10:38;-1.60;99.90